createdAt,value
2018-11-21T00:02:56.665Z,41.37
2018-11-21T00:05:38.057Z,41.07
2018-11-21T00:08:19.145Z,42.30
2018-11-21T00:11:00.884Z,43.17
2018-11-21T00:13:41.980Z,45.03
2018-11-21T00:19:08.162Z,44.43
2018-11-21T00:24:34.153Z,38.73
2018-11-21T00:30:00.405Z,43.40
2018-11-21T00:35:21.802Z,44.57
2018-11-21T00:38:03.441Z,41.73
2018-11-21T00:40:44.569Z,43.63
2018-11-21T00:43:25.608Z,45.47
2018-11-21T00:46:10.787Z,42.30
2018-11-21T00:51:36.107Z,44.77
2018-11-21T00:54:17.323Z,46.37
2018-11-21T00:59:50.065Z,44.60
2018-11-21T01:05:17.147Z,43.40
2018-11-21T01:07:58.203Z,45.73
2018-11-21T01:13:27.965Z,46.90
2018-11-21T01:18:57.000Z,51.93
2018-11-21T01:21:38.381Z,43.93
2018-11-21T01:24:19.466Z,44.13
2018-11-21T01:27:01.942Z,47.20
2018-11-21T01:29:45.461Z,46.43
2018-11-21T01:35:03.924Z,42.23
2018-11-21T01:40:32.401Z,46.07
2018-11-21T01:43:12.987Z,45.50
2018-11-21T01:45:55.194Z,42.83
2018-11-21T01:48:36.951Z,44.10
2018-11-21T01:51:21.327Z,43.40
2018-11-21T01:56:48.000Z,43.67
2018-11-21T02:02:13.739Z,44.03
2018-11-21T02:07:31.952Z,43.00
2018-11-21T02:10:20.116Z,48.37
2018-11-21T02:13:04.180Z,46.17
2018-11-21T02:15:33.399Z,46.63
2018-11-21T02:18:21.886Z,46.40
2018-11-21T02:21:09.928Z,45.27
2018-11-21T02:23:51.327Z,46.60
2018-11-21T02:29:02.338Z,47.70
2018-11-21T02:31:50.679Z,49.57
2018-11-21T02:40:03.380Z,44.80
2018-11-21T02:42:44.731Z,48.67
2018-11-21T02:45:27.088Z,48.97
2018-11-21T02:48:11.206Z,48.73
2018-11-21T02:53:36.687Z,51.10
2018-11-21T03:01:48.196Z,49.23
2018-11-21T03:04:29.436Z,54.17
2018-11-21T03:07:09.935Z,53.27
2018-11-21T03:09:53.404Z,55.00
2018-11-21T03:12:34.910Z,50.47
2018-11-21T03:15:03.748Z,50.33
2018-11-21T03:17:52.010Z,52.93
2018-11-21T03:20:40.264Z,55.10
2018-11-21T03:23:21.673Z,57.07
2018-11-21T03:26:03.579Z,52.23
2018-11-21T03:28:44.753Z,56.97
2018-11-21T03:34:10.532Z,61.07
2018-11-21T03:36:51.338Z,53.93
2018-11-21T03:39:35.573Z,53.00
2018-11-21T03:42:17.674Z,53.87
2018-11-21T03:44:59.435Z,55.13
2018-11-21T03:47:41.533Z,57.13
2018-11-21T03:50:22.424Z,59.80
2018-11-21T03:55:45.852Z,51.43
2018-11-21T03:58:28.956Z,55.07
2018-11-21T04:01:13.303Z,55.87
2018-11-21T04:06:42.587Z,58.00
2018-11-21T04:09:24.318Z,61.97
2018-11-21T04:11:54.553Z,57.70
2018-11-21T04:14:42.240Z,53.93
2018-11-21T04:17:26.199Z,58.67
2018-11-21T04:20:07.807Z,56.60
2018-11-21T04:22:48.764Z,58.50
2018-11-21T04:28:14.617Z,55.20
2018-11-21T04:30:56.018Z,55.97
2018-11-21T04:33:37.057Z,57.47
2018-11-21T04:36:19.622Z,52.80
2018-11-21T04:39:00.795Z,55.03
2018-11-21T04:44:27.278Z,57.63
2018-11-21T04:47:15.616Z,52.67
2018-11-21T04:49:57.613Z,51.53
2018-11-21T04:58:15.010Z,54.20
2018-11-21T05:00:55.024Z,57.47
2018-11-21T05:03:36.878Z,57.50
2018-11-21T05:09:02.934Z,57.80
2018-11-21T05:11:44.205Z,54.93
2018-11-21T05:14:28.158Z,56.37
2018-11-21T05:17:09.762Z,53.70
2018-11-21T05:19:51.189Z,54.90
2018-11-21T05:25:20.035Z,58.33
2018-11-21T05:28:01.521Z,55.03
2018-11-21T05:30:45.869Z,61.50
2018-11-21T05:33:28.688Z,59.30
2018-11-21T05:39:00.558Z,53.10
2018-11-21T05:44:33.149Z,52.23
2018-11-21T05:47:13.929Z,55.20
2018-11-21T05:49:55.397Z,55.30
2018-11-21T05:52:24.497Z,60.60
2018-11-21T05:55:13.607Z,63.00
2018-11-21T05:58:02.479Z,65.67
2018-11-21T06:03:25.917Z,64.13
2018-11-21T06:06:14.132Z,58.20
2018-11-21T06:08:56.483Z,58.90
2018-11-21T06:11:38.355Z,66.90
2018-11-21T06:14:18.503Z,62.37
2018-11-21T06:19:49.268Z,61.33
2018-11-21T06:25:15.507Z,64.77
2018-11-21T06:30:41.115Z,65.33
2018-11-21T06:35:54.460Z,89.40
2018-11-21T06:38:42.899Z,84.23
2018-11-21T06:41:27.617Z,71.33
2018-11-21T06:46:53.667Z,80.27
2018-11-21T06:55:04.477Z,70.00
2018-11-21T06:57:47.616Z,64.87
2018-11-21T07:00:31.639Z,70.17
2018-11-21T07:05:52.904Z,65.10
2018-11-21T07:08:36.743Z,67.27
2018-11-21T07:14:07.103Z,72.50
2018-11-21T07:16:31.118Z,68.47
2018-11-21T07:22:22.577Z,63.30
2018-11-21T07:25:04.399Z,73.60
2018-11-21T07:27:48.290Z,68.47
2018-11-21T07:33:18.350Z,66.77
2018-11-21T07:35:59.319Z,69.70
2018-11-21T07:38:40.500Z,62.93
2018-11-21T07:41:22.299Z,67.03
2018-11-21T07:46:48.952Z,70.37
2018-11-21T07:49:29.498Z,74.60
2018-11-21T07:52:10.499Z,67.13
2018-11-21T07:54:52.471Z,64.50
2018-11-21T07:57:37.100Z,71.73
2018-11-21T08:00:18.898Z,64.90
2018-11-21T08:03:00.363Z,65.40
2018-11-21T08:11:54.947Z,61.33
2018-11-21T08:20:11.062Z,64.17
2018-11-21T08:23:17.847Z,63.70
2018-11-21T08:26:02.194Z,63.00
2018-11-21T08:28:44.517Z,60.90
2018-11-21T08:34:11.512Z,67.10
2018-11-21T08:36:52.418Z,67.03
2018-11-21T08:39:33.093Z,72.70
2018-11-21T08:42:01.654Z,71.30
2018-11-21T08:44:50.428Z,60.30
2018-11-21T08:47:40.279Z,63.13
2018-11-21T08:50:21.095Z,55.73
2018-11-21T08:53:01.864Z,58.43
2018-11-21T08:55:42.026Z,61.57
2018-11-21T08:58:23.813Z,58.53
2018-11-21T09:03:49.674Z,60.10
2018-11-21T09:09:17.932Z,55.23
2018-11-21T09:12:02.860Z,62.97
2018-11-21T09:14:43.942Z,61.53
2018-11-21T09:17:26.610Z,57.47
2018-11-21T09:20:11.685Z,58.63
2018-11-21T09:22:53.831Z,56.77
2018-11-21T09:25:35.831Z,58.07
2018-11-21T09:28:17.886Z,55.33
2018-11-21T09:30:58.341Z,51.63
2018-11-21T09:36:29.101Z,57.40
2018-11-21T09:39:11.584Z,49.17
2018-11-21T09:41:52.905Z,58.60
2018-11-21T09:44:21.458Z,48.90
2018-11-21T09:47:09.972Z,54.63
2018-11-21T09:49:58.750Z,52.20
2018-11-21T09:52:44.788Z,45.23
2018-11-21T09:55:29.329Z,46.80
2018-11-21T10:01:02.639Z,48.23
2018-11-21T10:03:44.685Z,48.37
2018-11-21T10:06:28.780Z,44.63
2018-11-21T10:09:29.014Z,44.83
2018-11-21T10:12:10.184Z,43.40
2018-11-21T10:14:51.990Z,41.47
2018-11-21T10:17:33.726Z,38.43
2018-11-21T10:20:17.917Z,43.70
2018-11-21T10:23:00.445Z,42.93
2018-11-21T10:25:42.041Z,44.47
2018-11-21T10:28:23.983Z,44.67
2018-11-21T10:30:53.098Z,46.03
2018-11-21T10:33:41.752Z,39.77
2018-11-21T10:36:31.635Z,45.07
2018-11-21T10:39:12.503Z,42.20
2018-11-21T10:44:43.747Z,40.43
2018-11-21T10:50:10.462Z,35.03
2018-11-21T10:55:36.270Z,42.37
2018-11-21T10:58:21.832Z,41.67
2018-11-21T11:07:13.409Z,35.10
2018-11-21T11:10:20.589Z,39.40
2018-11-21T11:13:20.536Z,39.60
2018-11-21T11:16:24.290Z,40.03
2018-11-21T11:21:53.938Z,37.13
2018-11-21T11:24:45.208Z,46.20
2018-11-21T11:27:53.014Z,42.87
2018-11-21T11:33:42.583Z,38.40
2018-11-21T11:36:43.155Z,42.43
2018-11-21T11:42:14.171Z,36.33
2018-11-21T11:48:09.092Z,38.43
2018-11-21T11:51:09.908Z,31.77
2018-11-21T11:57:00.029Z,36.63
2018-11-21T12:03:05.681Z,34.23
2018-11-21T12:06:08.442Z,30.37
2018-11-21T12:09:12.136Z,36.43
2018-11-21T12:12:12.039Z,31.67
2018-11-21T12:15:15.178Z,32.47
2018-11-21T12:18:09.827Z,29.00
2018-11-21T12:21:11.802Z,30.57
2018-11-21T12:26:56.369Z,27.90
2018-11-21T12:32:43.704Z,30.57
2018-11-21T12:38:12.774Z,33.27
2018-11-21T12:41:15.756Z,30.30
2018-11-21T12:46:41.855Z,29.30
2018-11-21T12:49:44.642Z,35.93
2018-11-21T12:52:43.226Z,31.63
2018-11-21T13:04:25.452Z,31.53
2018-11-21T13:07:29.179Z,30.70
2018-11-21T13:10:09.869Z,33.03
2018-11-21T13:15:43.613Z,30.40
2018-11-21T13:24:52.066Z,30.03
2018-11-21T13:30:42.012Z,26.37
2018-11-21T13:36:30.885Z,29.13
2018-11-21T13:45:36.232Z,30.13
2018-11-21T13:51:37.482Z,29.07
2018-11-21T13:54:37.385Z,26.83
2018-11-21T13:57:18.791Z,28.70
2018-11-21T14:02:34.366Z,25.73
2018-11-21T14:11:21.839Z,24.60
2018-11-21T14:16:47.802Z,24.10
2018-11-21T14:22:17.564Z,28.70
2018-11-21T14:24:47.475Z,33.23
2018-11-21T14:27:16.852Z,24.53
2018-11-21T14:30:07.472Z,26.37
2018-11-21T14:32:37.120Z,38.87
2018-11-21T14:35:46.646Z,31.40
2018-11-21T14:38:28.788Z,33.67
2018-11-21T14:41:10.289Z,22.80
2018-11-21T14:46:36.115Z,34.47
2018-11-21T14:49:18.243Z,30.73
2018-11-21T14:54:46.025Z,30.17
2018-11-21T15:00:13.514Z,33.27
2018-11-21T15:05:57.670Z,23.00
2018-11-21T15:11:25.356Z,27.03
2018-11-21T15:14:06.054Z,24.70
2018-11-21T15:16:46.989Z,29.87
2018-11-21T15:19:27.978Z,32.07
2018-11-21T15:22:08.376Z,28.37
2018-11-21T15:24:52.933Z,30.30
2018-11-21T15:27:33.366Z,26.67
2018-11-21T15:30:16.353Z,29.27
2018-11-21T15:32:57.391Z,37.23
2018-11-21T15:38:34.266Z,40.53
2018-11-21T15:41:16.334Z,28.07
2018-11-21T15:44:01.773Z,31.73
2018-11-21T15:49:19.966Z,33.23
2018-11-21T15:52:08.668Z,31.37
2018-11-21T15:54:49.593Z,37.43
2018-11-21T15:57:30.807Z,31.83
2018-11-21T16:00:13.416Z,48.33
2018-11-21T16:02:44.760Z,39.27
2018-11-21T16:08:24.489Z,45.30
2018-11-21T16:11:13.798Z,45.20
2018-11-21T16:19:35.563Z,35.37
2018-11-21T16:22:18.371Z,38.37
2018-11-21T16:25:00.883Z,46.20
2018-11-21T16:27:43.825Z,45.63
2018-11-21T16:30:25.863Z,44.13
2018-11-21T16:38:37.704Z,41.97
2018-11-21T16:44:04.515Z,43.33
2018-11-21T16:46:46.885Z,41.60
2018-11-21T16:55:06.131Z,47.37
2018-11-21T17:00:35.890Z,37.17
2018-11-21T17:03:16.442Z,48.03
2018-11-21T17:05:57.999Z,41.93
2018-11-21T17:08:39.116Z,39.87
2018-11-21T17:11:07.889Z,37.53
2018-11-21T17:13:56.731Z,39.83
2018-11-21T17:16:45.414Z,40.53
2018-11-21T17:19:29.461Z,37.10
2018-11-21T17:24:55.488Z,38.80
2018-11-21T17:27:36.291Z,40.10
2018-11-21T17:30:21.459Z,53.37
2018-11-21T17:38:33.693Z,45.30
2018-11-21T17:41:12.943Z,53.10
2018-11-21T17:43:55.580Z,51.40
2018-11-21T17:49:21.183Z,47.97
2018-11-21T17:52:02.602Z,50.10
2018-11-21T17:54:31.161Z,49.93
2018-11-21T17:57:19.008Z,50.00
2018-11-21T18:00:00.456Z,46.33
2018-11-21T18:02:41.663Z,51.23
2018-11-21T18:05:23.934Z,47.40
2018-11-21T18:08:05.425Z,52.07
2018-11-21T18:10:47.108Z,47.50
2018-11-21T18:13:27.603Z,40.87
2018-11-21T18:16:08.724Z,44.63
2018-11-21T18:18:50.503Z,49.87
2018-11-21T18:21:32.604Z,49.73
2018-11-21T18:24:13.658Z,43.67
2018-11-21T18:26:55.669Z,52.07
2018-11-21T18:29:37.104Z,43.60
2018-11-21T18:32:21.728Z,60.07
2018-11-21T18:35:02.664Z,53.73
2018-11-21T18:37:44.524Z,46.00
2018-11-21T18:40:27.647Z,54.93
2018-11-21T18:43:08.752Z,52.63
2018-11-21T18:45:51.931Z,46.63
2018-11-21T18:48:33.425Z,49.67
2018-11-21T18:51:16.101Z,41.10
2018-11-21T18:53:58.058Z,53.17
2018-11-21T18:59:23.937Z,56.67
2018-11-21T19:02:05.002Z,51.00
2018-11-21T19:04:46.378Z,48.93
2018-11-21T19:10:18.333Z,50.90
2018-11-21T19:12:59.067Z,46.83
2018-11-21T19:15:40.174Z,52.07
2018-11-21T19:18:21.057Z,48.60
2018-11-21T19:21:02.060Z,51.77
2018-11-21T19:23:43.817Z,47.40
2018-11-21T19:26:25.371Z,52.97
2018-11-21T19:29:06.314Z,53.17
2018-11-21T19:31:47.672Z,52.03
2018-11-21T19:37:13.385Z,49.87
2018-11-21T19:39:55.991Z,51.43
2018-11-21T19:42:36.762Z,45.67
2018-11-21T19:45:18.048Z,44.57
2018-11-21T19:47:59.628Z,46.23
2018-11-21T19:50:40.232Z,48.93
2018-11-21T19:53:21.599Z,55.50
2018-11-21T19:55:52.607Z,52.17
2018-11-21T19:58:42.352Z,49.37
2018-11-21T20:01:24.599Z,46.73
2018-11-21T20:06:56.119Z,47.67
2018-11-21T20:09:36.875Z,48.43
2018-11-21T20:12:17.531Z,49.20
2018-11-21T20:15:00.377Z,52.53
2018-11-21T20:17:42.137Z,47.57
2018-11-21T20:20:23.392Z,48.07
2018-11-21T20:23:07.507Z,53.13
2018-11-21T20:25:48.755Z,54.97
2018-11-21T20:28:29.920Z,50.03
2018-11-21T20:31:11.063Z,51.93
2018-11-21T20:33:51.774Z,46.87
2018-11-21T20:36:32.365Z,53.10
2018-11-21T20:39:15.561Z,49.20
2018-11-21T20:41:58.263Z,50.13
2018-11-21T20:44:41.681Z,46.00
2018-11-21T20:50:34.227Z,45.23
2018-11-21T20:53:15.493Z,46.00
2018-11-21T20:55:57.095Z,51.13
2018-11-21T20:58:37.375Z,46.53
2018-11-21T21:01:06.692Z,46.00
2018-11-21T21:03:54.537Z,44.03
2018-11-21T21:06:35.129Z,48.40
2018-11-21T21:14:46.336Z,43.67
2018-11-21T21:17:28.008Z,42.07
2018-11-21T21:20:10.277Z,46.33
2018-11-21T21:25:32.421Z,48.23
2018-11-21T21:30:56.174Z,44.90
2018-11-21T21:33:42.509Z,47.57
2018-11-21T21:41:43.826Z,46.73
2018-11-21T21:44:31.694Z,47.97
2018-11-21T21:47:12.589Z,46.63
2018-11-21T21:52:48.863Z,51.57
2018-11-21T21:55:36.652Z,49.63
2018-11-21T21:58:18.809Z,47.33
2018-11-21T22:01:00.367Z,50.03
2018-11-21T22:03:40.719Z,54.37
2018-11-21T22:06:22.947Z,49.93
2018-11-21T22:09:04.835Z,54.17
2018-11-21T22:11:45.415Z,54.37
2018-11-21T22:14:27.749Z,56.27
2018-11-21T22:23:18.145Z,48.03
2018-11-21T22:26:00.519Z,50.73
2018-11-21T22:28:40.938Z,43.13
2018-11-21T22:31:22.011Z,50.10
2018-11-21T22:34:02.218Z,50.40
2018-11-21T22:36:44.006Z,56.33
2018-11-21T22:39:25.095Z,48.53
2018-11-21T22:44:50.824Z,48.27
2018-11-21T22:50:13.771Z,51.73
2018-11-21T22:52:54.662Z,49.67
2018-11-21T22:55:36.352Z,45.53
2018-11-21T22:58:18.091Z,47.10
2018-11-21T23:00:49.956Z,45.60
2018-11-21T23:03:38.328Z,46.07
2018-11-21T23:06:26.970Z,43.30
2018-11-21T23:09:07.778Z,45.30
2018-11-21T23:11:36.756Z,49.27
2018-11-21T23:14:24.621Z,43.17
2018-11-21T23:17:06.281Z,52.33
2018-11-21T23:22:14.816Z,48.67
2018-11-21T23:25:22.608Z,45.60
2018-11-21T23:28:04.706Z,47.33
2018-11-21T23:30:46.088Z,45.33
2018-11-21T23:33:26.903Z,46.63
2018-11-21T23:36:08.968Z,46.13
2018-11-21T23:38:53.195Z,45.73
2018-11-21T23:41:33.501Z,48.47
2018-11-21T23:44:02.339Z,46.67
2018-11-21T23:46:50.623Z,42.77
2018-11-21T23:49:35.016Z,54.70
2018-11-21T23:52:16.062Z,55.27
2018-11-21T23:54:58.847Z,48.17
2018-11-21T23:57:39.720Z,50.10
